Time;durP1;ratioP1;P1;durP2;ratioP2;P2;SDS_P1;SDS_P2;PMS_P1;PMS_P2;Temp;Humidity;BMP_temperature;BMP_pressure;BME280_temperature;BME280_humidity;BME280_pressure;Samples;Min_cycle;Max_cycle;Signal;HPM_P1;HPM_P2
2022/01/21 00:00:13;;;;;;;;;;;;;;;;;;4241356;28;1042;-55
2022/01/21 00:02:52;;;;;;;;;;;;;;;;;;4240895;28;946;-55
2022/01/21 00:05:13;;;;;;;;;;;;;;;;;;4241081;28;1989;-55
2022/01/21 00:07:33;;;;;;;;;;;;;;;;;;4240487;28;1008;-55
2022/01/21 00:09:54;;;;;;;;;;;;;;;;;;4240488;28;1181;-55
2022/01/21 00:12:14;;;;;;;;;;;;;;;;;;4240693;28;986;-56
2022/01/21 00:14:34;;;;;;;;;;;;;;;;;;4240711;28;1140;-56
2022/01/21 00:16:55;;;;;;;;;;;;;;;;;;4240796;28;966;-55
2022/01/21 00:19:17;;;;;;;;;;;;;;;;;;4240395;28;997;-55
2022/01/21 00:32:11;;;;;;;;;;;;;;;;;;4225095;28;1232;-55
2022/01/21 00:34:31;;;;;;;;;;;;;;;;;;4224762;28;1120;-55
2022/01/21 00:36:52;;;;;;;;;;;;;;;;;;4240591;28;1270;-56
2022/01/21 00:39:13;;;;;;;;;;;;;;;;;;4240784;28;853;-55
2022/01/21 00:41:38;;;;;;;;;;;;;;;;;;4224515;28;1019;-55
2022/01/21 00:43:59;;;;;;;;;;;;;;;;;;4225255;28;1187;-56
2022/01/21 00:46:19;;;;;;;;;;;;;;;;;;4225132;28;1940;-56
2022/01/21 00:48:39;;;;;;;;;;;;;;;;;;4240439;28;1271;-55
2022/01/21 00:51:00;;;;;;;;;;;;;;;;;;4240550;28;983;-55
2022/01/21 00:53:20;;;;;;;;;;;;;;;;;;4240444;28;948;-56
2022/01/21 00:55:40;;;;;;;;;;;;;;;;;;4240044;28;1318;-57
2022/01/21 00:58:01;;;;;;;;;;;;;;;;;;4239967;28;1190;-55
2022/01/21 01:00:21;;;;;;;;;;;;;;;;;;4239975;28;1100;-55
2022/01/21 01:02:41;;;;;;;;;;;;;;;;;;4224410;28;949;-56
2022/01/21 01:05:02;;;;;;;;;;;;;;;;;;4239930;28;1910;-56
2022/01/21 01:07:22;;;;;;;;;;;;;;;;;;4240063;28;1060;-55
2022/01/21 01:09:43;;;;;;;;;;;;;;;;;;4240160;28;930;-55
2022/01/21 01:12:17;;;;;;;;;;;;;;;;;;4225040;28;1051;-56
2022/01/21 01:20:04;;;;;;;;;;;;;;;;;;4207830;28;1003;-55
2022/01/21 01:22:32;;;;;;;;;;;;;;;;;;4222689;28;935;-56
2022/01/21 01:27:40;;;;;;;;;;;;;;;;;;4222879;28;953;-56
2022/01/21 01:30:01;;;;;;;;;;;;;;;;;;4222917;28;1095;-56
2022/01/21 01:32:21;;;;;;;;;;;;;;;;;;4221747;28;832;-56
2022/01/21 01:34:41;;;;;;;;;;;;;;;;;;4222926;28;1054;-56
2022/01/21 01:37:08;;;;;;;;;;;;;;;;;;4223109;28;1111;-55
2022/01/21 01:39:34;;;;;;;;;;;;;;;;;;4221435;28;1283;-56
2022/01/21 01:42:01;;;;;;;;;;;;;;;;;;4222431;28;1362;-55
2022/01/21 01:49:39;;;;;;;;;;;;;;;;;;4222379;28;1827;-55
2022/01/21 01:52:00;;;;;;;;;;;;;;;;;;4222426;28;1533;-56
2022/01/21 01:54:20;;;;;;;;;;;;;;;;;;4222729;28;1027;-56
2022/01/21 01:56:40;;;;;;;;;;;;;;;;;;4221752;28;1036;-56
2022/01/21 01:59:01;;;;;;;;;;;;;;;;;;4221257;28;1236;-56
2022/01/21 02:04:00;;;;;;;;;;;;;;;;;;4221231;28;958;-56
2022/01/21 02:06:20;;;;;;;;;;;;;;;;;;4220809;28;1910;-56
2022/01/21 02:08:41;;;;;;;;;;;;;;;;;;4222123;28;1043;-55
2022/01/21 02:11:02;;;;;;;;;;;;;;;;;;4220642;28;1303;-55
2022/01/21 02:13:25;;;;;;;;;;;;;;;;;;4222113;28;1099;-56
2022/01/21 02:15:46;;;;;;;;;;;;;;;;;;4222033;28;977;-56
2022/01/21 02:23:38;;;;;;;;;;;;;;;;;;4169947;28;1100;-55
2022/01/21 02:25:58;;;;;;;;;;;;;;;;;;4196478;28;1906;-56
2022/01/21 02:28:19;;;;;;;;;;;;;;;;;;4220763;28;1234;-56
2022/01/21 02:30:40;;;;;;;;;;;;;;;;;;4221989;28;843;-56
2022/01/21 02:33:00;;;;;;;;;;;;;;;;;;4220886;28;1009;-56
2022/01/21 02:35:21;;;;;;;;;;;;;;;;;;4222023;28;1121;-55
2022/01/21 02:37:41;;;;;;;;;;;;;;;;;;4221009;28;1064;-55
2022/01/21 02:40:01;;;;;;;;;;;;;;;;;;4221733;28;978;-56
2022/01/21 02:42:22;;;;;;;;;;;;;;;;;;4220719;28;1108;-55
2022/01/21 02:44:42;;;;;;;;;;;;;;;;;;4220728;28;1285;-55
2022/01/21 02:47:04;;;;;;;;;;;;;;;;;;4220697;28;1999;-55
2022/01/21 02:49:29;;;;;;;;;;;;;;;;;;4220729;28;1132;-55
2022/01/21 02:51:50;;;;;;;;;;;;;;;;;;4220712;28;896;-56
2022/01/21 02:54:10;;;;;;;;;;;;;;;;;;4221724;28;1047;-55
2022/01/21 02:56:31;;;;;;;;;;;;;;;;;;4220993;28;943;-56
2022/01/21 02:58:51;;;;;;;;;;;;;;;;;;4220494;28;966;-55
2022/01/21 03:01:11;;;;;;;;;;;;;;;;;;4221913;28;878;-55
2022/01/21 03:03:32;;;;;;;;;;;;;;;;;;4221490;28;1194;-55
2022/01/21 03:05:52;;;;;;;;;;;;;;;;;;4220225;28;1918;-56
2022/01/21 03:08:13;;;;;;;;;;;;;;;;;;4220654;28;1104;-55
2022/01/21 03:10:33;;;;;;;;;;;;;;;;;;4220535;28;977;-55
2022/01/21 03:12:54;;;;;;;;;;;;;;;;;;4220146;28;836;-56
2022/01/21 03:15:14;;;;;;;;;;;;;;;;;;4220539;28;946;-56
2022/01/21 03:17:34;;;;;;;;;;;;;;;;;;4221479;28;1091;-55
2022/01/21 03:19:56;;;;;;;;;;;;;;;;;;4220602;28;1171;-55
2022/01/21 03:22:17;;;;;;;;;;;;;;;;;;4220136;28;1345;-56
2022/01/21 03:24:37;;;;;;;;;;;;;;;;;;4221305;28;1105;-55
2022/01/21 03:26:58;;;;;;;;;;;;;;;;;;4220250;28;1970;-55
2022/01/21 03:29:18;;;;;;;;;;;;;;;;;;4220308;28;1011;-56
2022/01/21 03:31:39;;;;;;;;;;;;;;;;;;4221349;28;1375;-56
2022/01/21 03:34:00;;;;;;;;;;;;;;;;;;4220396;28;1083;-56
2022/01/21 03:36:20;;;;;;;;;;;;;;;;;;4220190;28;917;-55
2022/01/21 03:38:41;;;;;;;;;;;;;;;;;;4220288;28;1173;-56
2022/01/21 03:41:01;;;;;;;;;;;;;;;;;;4220274;28;973;-56
2022/01/21 03:43:22;;;;;;;;;;;;;;;;;;4220064;28;1063;-56
2022/01/21 03:45:43;;;;;;;;;;;;;;;;;;4220183;28;1910;-56
2022/01/21 03:48:04;;;;;;;;;;;;;;;;;;4220565;28;864;-56
2022/01/21 03:50:31;;;;;;;;;;;;;;;;;;4221160;28;929;-55
2022/01/21 03:52:52;;;;;;;;;;;;;;;;;;4221290;28;1088;-55
2022/01/21 03:55:12;;;;;;;;;;;;;;;;;;4220448;28;1010;-55
2022/01/21 03:57:33;;;;;;;;;;;;;;;;;;4220781;28;1104;-56
2022/01/21 03:59:53;;;;;;;;;;;;;;;;;;4220246;28;884;-56
2022/01/21 04:02:14;;;;;;;;;;;;;;;;;;4220274;28;1045;-56
2022/01/21 04:04:34;;;;;;;;;;;;;;;;;;4219632;28;1393;-55
2022/01/21 04:06:55;;;;;;;;;;;;;;;;;;4219528;28;1909;-56
2022/01/21 04:09:17;;;;;;;;;;;;;;;;;;4219785;28;1020;-55
2022/01/21 04:11:38;;;;;;;;;;;;;;;;;;4220356;28;1496;-55
2022/01/21 04:13:58;;;;;;;;;;;;;;;;;;4219685;28;972;-56
2022/01/21 04:16:19;;;;;;;;;;;;;;;;;;4219756;28;974;-55
2022/01/21 04:18:40;;;;;;;;;;;;;;;;;;4220086;28;869;-56
2022/01/21 04:21:03;;;;;;;;;;;;;;;;;;4219738;28;1182;-56
2022/01/21 04:23:26;;;;;;;;;;;;;;;;;;4219538;28;1283;-56
2022/01/21 04:25:46;;;;;;;;;;;;;;;;;;4219474;28;1909;-55
2022/01/21 04:28:08;;;;;;;;;;;;;;;;;;4223010;28;979;-55
2022/01/21 04:30:29;;;;;;;;;;;;;;;;;;4222539;28;1137;-55
2022/01/21 04:32:49;;;;;;;;;;;;;;;;;;4222994;28;865;-55
2022/01/21 04:35:16;;;;;;;;;;;;;;;;;;4222408;28;1182;-56
2022/01/21 04:37:42;;;;;;;;;;;;;;;;;;4222556;28;1144;-55
2022/01/21 04:40:08;;;;;;;;;;;;;;;;;;4222758;28;1001;-55
2022/01/21 04:47:45;;;;;;;;;;;;;;;;;;4223509;28;1910;-55
2022/01/21 04:50:12;;;;;;;;;;;;;;;;;;4222451;28;853;-55
2022/01/21 04:52:35;;;;;;;;;;;;;;;;;;4222473;28;1425;-55
2022/01/21 04:55:14;;;;;;;;;;;;;;;;;;4223532;28;828;-55
2022/01/21 04:57:35;;;;;;;;;;;;;;;;;;4221995;28;1076;-55
2022/01/21 04:59:55;;;;;;;;;;;;;;;;;;4222235;28;990;-55
2022/01/21 05:02:17;;;;;;;;;;;;;;;;;;4222156;28;1224;-55
2022/01/21 05:04:37;;;;;;;;;;;;;;;;;;4222589;28;1115;-56
2022/01/21 05:06:58;;;;;;;;;;;;;;;;;;4221973;28;1909;-55
2022/01/21 05:09:21;;;;;;;;;;;;;;;;;;4222048;28;1057;-55
2022/01/21 05:11:42;;;;;;;;;;;;;;;;;;4221734;28;905;-56
2022/01/21 05:14:14;;;;;;;;;;;;;;;;;;4222984;28;1061;-56
2022/01/21 05:16:45;;;;;;;;;;;;;;;;;;4221842;28;986;-55
2022/01/21 05:19:07;;;;;;;;;;;;;;;;;;4221718;28;939;-56
2022/01/21 05:22:04;;;;;;;;;;;;;;;;;;4171461;28;949;-55
2022/01/21 05:24:29;;;;;;;;;;;;;;;;;;4216097;28;1212;-56
2022/01/21 05:26:54;;;;;;;;;;;;;;;;;;4221789;28;1909;-55
2022/01/21 05:29:16;;;;;;;;;;;;;;;;;;4222177;28;873;-56
2022/01/21 05:31:44;;;;;;;;;;;;;;;;;;4221739;28;1177;-55
2022/01/21 05:34:27;;;;;;;;;;;;;;;;;;4221659;28;1312;-55
2022/01/21 05:37:06;;;;;;;;;;;;;;;;;;4221417;28;1397;-55
2022/01/21 05:39:33;;;;;;;;;;;;;;;;;;4221738;28;924;-55
2022/01/21 05:42:12;;;;;;;;;;;;;;;;;;4223062;28;1082;-56
2022/01/21 05:47:56;;;;;;;;;;;;;;;;;;4222727;28;1901;-56
2022/01/21 05:50:39;;;;;;;;;;;;;;;;;;4222266;28;1888;-55
2022/01/21 05:53:18;;;;;;;;;;;;;;;;;;4222711;28;1061;-55
2022/01/21 05:55:52;;;;;;;;;;;;;;;;;;4221698;28;1193;-55
2022/01/21 05:58:28;;;;;;;;;;;;;;;;;;4221803;28;917;-56
2022/01/21 06:00:48;;;;;;;;;;;;;;;;;;4221493;28;1005;-55
2022/01/21 06:03:09;;;;;;;;;;;;;;;;;;4221380;28;994;-56
2022/01/21 06:05:33;;;;;;;;;;;;;;;;;;4221349;28;1056;-55
2022/01/21 06:07:53;;;;;;;;;;;;;;;;;;4220944;28;1976;-55
2022/01/21 06:10:14;;;;;;;;;;;;;;;;;;4221672;28;1015;-56
2022/01/21 06:12:34;;;;;;;;;;;;;;;;;;4222451;28;940;-56
2022/01/21 06:14:55;;;;;;;;;;;;;;;;;;4222312;28;2089;-56
2022/01/21 06:17:15;;;;;;;;;;;;;;;;;;4221323;28;1195;-56
2022/01/21 06:19:35;;;;;;;;;;;;;;;;;;4222321;28;1068;-55
2022/01/21 06:21:56;;;;;;;;;;;;;;;;;;4222311;28;951;-55
2022/01/21 06:24:16;;;;;;;;;;;;;;;;;;4221666;28;1925;-56
2022/01/21 06:26:36;;;;;;;;;;;;;;;;;;4221091;28;1910;-56
2022/01/21 06:28:56;;;;;;;;;;;;;;;;;;4220245;28;1788;-56
2022/01/21 06:31:17;;;;;;;;;;;;;;;;;;4220432;28;1386;-56
2022/01/21 06:33:37;;;;;;;;;;;;;;;;;;4220351;28;1645;-55
2022/01/21 06:35:57;;;;;;;;;;;;;;;;;;4220373;28;1580;-56
2022/01/21 06:38:18;;;;;;;;;;;;;;;;;;4220967;28;1478;-56
2022/01/21 06:40:38;;;;;;;;;;;;;;;;;;4220448;28;1505;-56
2022/01/21 06:43:02;;;;;;;;;;;;;;;;;;4220274;28;1766;-55
2022/01/21 06:45:22;;;;;;;;;;;;;;;;;;4220929;28;1868;-56
2022/01/21 06:47:42;;;;;;;;;;;;;;;;;;4220561;28;1980;-55
2022/01/21 06:50:03;;;;;;;;;;;;;;;;;;4220663;28;1785;-56
2022/01/21 06:52:23;;;;;;;;;;;;;;;;;;4220626;28;1760;-56
2022/01/21 06:54:43;;;;;;;;;;;;;;;;;;4221884;28;1118;-56
2022/01/21 06:57:04;;;;;;;;;;;;;;;;;;4221825;28;1091;-55
2022/01/21 06:59:24;;;;;;;;;;;;;;;;;;4221464;28;985;-56
2022/01/21 07:01:44;;;;;;;;;;;;;;;;;;4221917;28;936;-55
2022/01/21 07:04:05;;;;;;;;;;;;;;;;;;4221424;28;1366;-56
2022/01/21 07:06:25;;;;;;;;;;;;;;;;;;4221856;28;1205;-55
2022/01/21 07:08:45;;;;;;;;;;;;;;;;;;4221974;28;1211;-55
2022/01/21 07:11:05;;;;;;;;;;;;;;;;;;4221936;28;966;-56
2022/01/21 07:13:26;;;;;;;;;;;;;;;;;;4221943;28;938;-56
2022/01/21 07:15:46;;;;;;;;;;;;;;;;;;4221633;28;1201;-56
2022/01/21 07:18:06;;;;;;;;;;;;;;;;;;4221497;28;1028;-56
2022/01/21 07:20:27;;;;;;;;;;;;;;;;;;4221360;28;984;-56
2022/01/21 07:22:47;;;;;;;;;;;;;;;;;;4221727;28;916;-56
2022/01/21 07:25:07;;;;;;;;;;;;;;;;;;4221266;28;1073;-56
2022/01/21 07:27:28;;;;;;;;;;;;;;;;;;4221145;28;1906;-55
2022/01/21 07:29:48;;;;;;;;;;;;;;;;;;4221200;28;1085;-55
2022/01/21 07:32:08;;;;;;;;;;;;;;;;;;4221575;28;1051;-56
2022/01/21 07:34:29;;;;;;;;;;;;;;;;;;4221123;28;1202;-56
2022/01/21 07:36:49;;;;;;;;;;;;;;;;;;4221379;28;988;-55
2022/01/21 07:39:09;;;;;;;;;;;;;;;;;;4221169;28;1063;-55
2022/01/21 07:41:30;;;;;;;;;;;;;;;;;;4221100;28;1575;-55
2022/01/21 07:43:50;;;;;;;;;;;;;;;;;;4221426;28;1040;-55
2022/01/21 07:46:10;;;;;;;;;;;;;;;;;;4221560;28;948;-55
2022/01/21 07:48:30;;;;;;;;;;;;;;;;;;4221390;28;1914;-54
2022/01/21 07:50:51;;;;;;;;;;;;;;;;;;4221137;28;1264;-55
2022/01/21 07:53:11;;;;;;;;;;;;;;;;;;4221245;28;938;-55
2022/01/21 07:55:31;;;;;;;;;;;;;;;;;;4221117;28;979;-53
2022/01/21 07:57:52;;;;;;;;;;;;;;;;;;4221203;28;959;-54
2022/01/21 08:00:12;;;;;;;;;;;;;;;;;;4221235;28;1006;-53
2022/01/21 08:02:35;;;;;;;;;;;;;;;;;;4223912;28;1204;-54
2022/01/21 08:04:57;;;;;;;;;;;;;;;;;;4224122;28;1145;-54
2022/01/21 08:07:17;;;;;;;;;;;;;;;;;;4224166;28;1909;-53
2022/01/21 08:09:38;;;;;;;;;;;;;;;;;;4224148;28;1019;-53
2022/01/21 08:11:58;;;;;;;;;;;;;;;;;;4223765;28;1405;-53
2022/01/21 08:14:19;;;;;;;;;;;;;;;;;;4223976;28;980;-54
2022/01/21 08:16:39;;;;;;;;;;;;;;;;;;4223936;28;1012;-53
2022/01/21 08:18:59;;;;;;;;;;;;;;;;;;4224069;28;1007;-53
2022/01/21 08:21:19;;;;;;;;;;;;;;;;;;4224031;28;1023;-53
2022/01/21 08:23:40;;;;;;;;;;;;;;;;;;4223737;28;1065;-53
2022/01/21 08:26:00;;;;;;;;;;;;;;;;;;4223457;28;1216;-53
2022/01/21 08:28:20;;;;;;;;;;;;;;;;;;4223827;28;2012;-54
2022/01/21 08:30:41;;;;;;;;;;;;;;;;;;4213314;28;2637;-53
2022/01/21 08:33:01;;;;;;;;;;;;;;;;;;4221095;28;936;-53
2022/01/21 08:35:21;;;;;;;;;;;;;;;;;;4223399;28;1966;-53
2022/01/21 08:37:41;;;;;;;;;;;;;;;;;;4223595;28;1068;-53
2022/01/21 08:40:01;;;;;;;;;;;;;;;;;;4220158;28;2657;-53
2022/01/21 08:42:21;;;;;;;;;;;;;;;;;;4217231;28;1221;-54
2022/01/21 08:44:42;;;;;;;;;;;;;;;;;;4206942;28;833;-53
2022/01/21 08:47:02;;;;;;;;;;;;;;;;;;4207725;28;932;-54
2022/01/21 08:49:22;;;;;;;;;;;;;;;;;;4209750;28;2083;-54
2022/01/21 08:51:49;;;;;;;;;;;;;;;;;;4212583;28;972;-54
2022/01/21 08:54:10;;;;;;;;;;;;;;;;;;4206900;28;934;-53
2022/01/21 08:56:30;;;;;;;;;;;;;;;;;;4211572;28;2340;-54
2022/01/21 08:58:51;;;;;;;;;;;;;;;;;;4209027;28;1008;-54
2022/01/21 09:01:11;;;;;;;;;;;;;;;;;;4223497;28;914;-54
2022/01/21 09:03:32;;;;;;;;;;;;;;;;;;4215388;28;1605;-53
2022/01/21 09:05:52;;;;;;;;;;;;;;;;;;4214635;28;1587;-54
2022/01/21 09:08:13;;;;;;;;;;;;;;;;;;4221062;28;2954;-55
2022/01/21 09:10:34;;;;;;;;;;;;;;;;;;4208241;28;1147;-55
2022/01/21 09:12:54;;;;;;;;;;;;;;;;;;4206058;28;1051;-54
2022/01/21 09:15:14;;;;;;;;;;;;;;;;;;4206274;28;996;-55
2022/01/21 09:17:36;;;;;;;;;;;;;;;;;;4206110;28;1284;-54
2022/01/21 09:19:57;;;;;;;;;;;;;;;;;;4206431;28;1004;-54
2022/01/21 09:22:17;;;;;;;;;;;;;;;;;;4215884;28;2684;-54
2022/01/21 09:24:37;;;;;;;;;;;;;;;;;;4216833;28;2208;-54
2022/01/21 09:26:57;;;;;;;;;;;;;;;;;;4206177;28;1331;-54
2022/01/21 09:29:18;;;;;;;;;;;;;;;;;;4205996;28;1982;-54
2022/01/21 09:31:39;;;;;;;;;;;;;;;;;;4206169;28;960;-55
2022/01/21 09:33:59;;;;;;;;;;;;;;;;;;4206146;28;1211;-54
2022/01/21 09:36:19;;;;;;;;;;;;;;;;;;4206444;28;825;-54
2022/01/21 09:38:40;;;;;;;;;;;;;;;;;;4206087;28;988;-54
2022/01/21 09:41:00;;;;;;;;;;;;;;;;;;4203705;28;1456;-55
2022/01/21 09:43:20;;;;;;;;;;;;;;;;;;4222113;28;950;-54
2022/01/21 09:45:41;;;;;;;;;;;;;;;;;;4222165;28;1205;-54
2022/01/21 09:48:05;;;;;;;;;;;;;;;;;;4222059;28;1987;-54
2022/01/21 09:50:25;;;;;;;;;;;;;;;;;;4222005;28;986;-54
2022/01/21 09:52:46;;;;;;;;;;;;;;;;;;4222361;28;1300;-55
2022/01/21 09:55:06;;;;;;;;;;;;;;;;;;4221913;28;974;-54
2022/01/21 09:57:27;;;;;;;;;;;;;;;;;;4221692;28;1757;-54
2022/01/21 09:59:47;;;;;;;;;;;;;;;;;;4221904;28;1372;-54
2022/01/21 10:02:07;;;;;;;;;;;;;;;;;;4222211;28;842;-53
2022/01/21 10:04:28;;;;;;;;;;;;;;;;;;4221467;28;1100;-54
2022/01/21 10:06:48;;;;;;;;;;;;;;;;;;4221787;28;929;-54
2022/01/21 10:09:09;;;;;;;;;;;;;;;;;;4221842;28;1905;-54
2022/01/21 10:11:29;;;;;;;;;;;;;;;;;;4221407;28;933;-54
2022/01/21 10:13:50;;;;;;;;;;;;;;;;;;4222188;28;1001;-55
2022/01/21 10:16:11;;;;;;;;;;;;;;;;;;4222175;28;825;-55
2022/01/21 10:18:31;;;;;;;;;;;;;;;;;;4221523;28;946;-54
2022/01/21 10:20:51;;;;;;;;;;;;;;;;;;4221510;28;1097;-54
2022/01/21 10:23:12;;;;;;;;;;;;;;;;;;4221251;28;1166;-54
2022/01/21 10:25:32;;;;;;;;;;;;;;;;;;4220917;28;1339;-54
2022/01/21 10:27:52;;;;;;;;;;;;;;;;;;4221567;28;1037;-54
2022/01/21 10:30:13;;;;;;;;;;;;;;;;;;4221497;28;1399;-54
2022/01/21 10:32:33;;;;;;;;;;;;;;;;;;4221237;28;978;-54
2022/01/21 10:34:53;;;;;;;;;;;;;;;;;;4221975;28;861;-54
2022/01/21 10:37:13;;;;;;;;;;;;;;;;;;4221816;28;860;-54
2022/01/21 10:39:35;;;;;;;;;;;;;;;;;;4221846;28;1001;-54
2022/01/21 10:41:56;;;;;;;;;;;;;;;;;;4221132;28;1142;-54
2022/01/21 10:44:17;;;;;;;;;;;;;;;;;;4221405;28;1110;-54
2022/01/21 10:46:37;;;;;;;;;;;;;;;;;;4221492;28;907;-54
2022/01/21 10:48:57;;;;;;;;;;;;;;;;;;4221461;28;1977;-55
2022/01/21 10:51:18;;;;;;;;;;;;;;;;;;4221632;28;942;-54
2022/01/21 10:53:43;;;;;;;;;;;;;;;;;;4221739;28;1023;-54
2022/01/21 10:56:04;;;;;;;;;;;;;;;;;;4221016;28;1147;-54
2022/01/21 10:58:24;;;;;;;;;;;;;;;;;;4221294;28;1111;-54
2022/01/21 11:00:44;;;;;;;;;;;;;;;;;;4221418;28;1466;-54
2022/01/21 11:03:05;;;;;;;;;;;;;;;;;;4220649;28;1693;-54
2022/01/21 11:05:29;;;;;;;;;;;;;;;;;;4220019;28;1763;-54
2022/01/21 11:07:50;;;;;;;;;;;;;;;;;;4221035;28;1767;-54
2022/01/21 11:10:10;;;;;;;;;;;;;;;;;;4219655;28;1909;-55
2022/01/21 11:12:30;;;;;;;;;;;;;;;;;;4218845;28;1730;-55
2022/01/21 11:14:51;;;;;;;;;;;;;;;;;;4221376;28;1101;-54
2022/01/21 11:17:15;;;;;;;;;;;;;;;;;;4220827;28;1380;-57
2022/01/21 11:19:36;;;;;;;;;;;;;;;;;;4221164;28;997;-57
2022/01/21 11:21:58;;;;;;;;;;;;;;;;;;4221003;28;1021;-56
2022/01/21 11:24:19;;;;;;;;;;;;;;;;;;4220956;28;1333;-56
2022/01/21 11:26:39;;;;;;;;;;;;;;;;;;4221689;28;845;-56
2022/01/21 11:29:00;;;;;;;;;;;;;;;;;;4221320;28;1983;-57
2022/01/21 11:31:20;;;;;;;;;;;;;;;;;;4220714;28;1275;-56
2022/01/21 11:33:40;;;;;;;;;;;;;;;;;;4221119;28;1105;-57
2022/01/21 11:36:00;;;;;;;;;;;;;;;;;;4222550;28;955;-57
2022/01/21 11:38:21;;;;;;;;;;;;;;;;;;4222795;28;2039;-56
2022/01/21 11:40:41;;;;;;;;;;;;;;;;;;4223950;28;967;-56
2022/01/21 11:43:01;;;;;;;;;;;;;;;;;;4224324;28;822;-57
2022/01/21 11:45:32;;;;;;;;;;;;;;;;;;4223725;28;1092;-56
2022/01/21 11:48:49;;;;;;;;;;;;;;;;;;4223413;28;1687;-56
2022/01/21 11:50:41;;;;;;;;;;;;;;;;;;4207547;28;1015;-56
2022/01/21 11:53:02;;;;;;;;;;;;;;;;;;4207245;28;877;-56
2022/01/21 11:55:22;;;;;;;;;;;;;;;;;;4207311;28;938;-56
2022/01/21 11:57:42;;;;;;;;;;;;;;;;;;4206872;28;1054;-56
2022/01/21 12:00:07;;;;;;;;;;;;;;;;;;4207232;28;819;-57
2022/01/21 12:02:27;;;;;;;;;;;;;;;;;;4207030;28;1109;-57
2022/01/21 12:04:47;;;;;;;;;;;;;;;;;;4207221;28;925;-56
2022/01/21 12:07:08;;;;;;;;;;;;;;;;;;4206971;28;1219;-56
2022/01/21 12:09:28;;;;;;;;;;;;;;;;;;4206493;28;1971;-56
2022/01/21 12:11:48;;;;;;;;;;;;;;;;;;4207070;28;921;-56
2022/01/21 12:14:08;;;;;;;;;;;;;;;;;;4206791;28;1182;-56
2022/01/21 12:16:29;;;;;;;;;;;;;;;;;;4206815;28;947;-57
2022/01/21 12:19:07;;;;;;;;;;;;;;;;;;4209980;28;2972;-56
2022/01/21 12:21:28;;;;;;;;;;;;;;;;;;4212849;28;1572;-56
2022/01/21 12:23:48;;;;;;;;;;;;;;;;;;4222624;28;1029;-57
2022/01/21 12:26:08;;;;;;;;;;;;;;;;;;4238933;28;1078;-56
2022/01/21 12:28:29;;;;;;;;;;;;;;;;;;4240581;28;1080;-56
2022/01/21 12:30:49;;;;;;;;;;;;;;;;;;4239717;28;1226;-56
2022/01/21 12:33:20;;;;;;;;;;;;;;;;;;4224719;28;1176;-56
2022/01/21 12:35:55;;;;;;;;;;;;;;;;;;4224839;28;1084;-56
2022/01/21 12:40:55;;;;;;;;;;;;;;;;;;4204042;28;2487;-56
2022/01/21 12:43:15;;;;;;;;;;;;;;;;;;4206404;28;1108;-56
2022/01/21 12:45:35;;;;;;;;;;;;;;;;;;4206348;28;2579;-56
2022/01/21 12:47:56;;;;;;;;;;;;;;;;;;4209658;28;1870;-56
2022/01/21 12:50:41;;;;;;;;;;;;;;;;;;4213855;28;1973;-56
2022/01/21 12:53:19;;;;;;;;;;;;;;;;;;4219519;28;1876;-56
2022/01/21 12:55:59;;;;;;;;;;;;;;;;;;4206270;28;1074;-57
2022/01/21 12:58:19;;;;;;;;;;;;;;;;;;4212036;28;1116;-56
2022/01/21 13:00:40;;;;;;;;;;;;;;;;;;4205921;28;1011;-56
2022/01/21 13:03:00;;;;;;;;;;;;;;;;;;4212480;28;1827;-56
2022/01/21 13:05:20;;;;;;;;;;;;;;;;;;4212851;28;1140;-55
2022/01/21 13:07:40;;;;;;;;;;;;;;;;;;4188104;28;1015;-55
2022/01/21 13:10:01;;;;;;;;;;;;;;;;;;4222349;28;1980;-55
2022/01/21 13:12:25;;;;;;;;;;;;;;;;;;4222355;28;2588;-56
2022/01/21 13:14:45;;;;;;;;;;;;;;;;;;4219114;28;2701;-56
2022/01/21 13:17:06;;;;;;;;;;;;;;;;;;4218060;28;1111;-55
2022/01/21 13:19:26;;;;;;;;;;;;;;;;;;4205790;28;1145;-56
2022/01/21 13:21:46;;;;;;;;;;;;;;;;;;4204766;28;1793;-55
2022/01/21 13:24:15;;;;;;;;;;;;;;;;;;4210777;28;1888;-55
2022/01/21 13:26:37;;;;;;;;;;;;;;;;;;4221590;28;857;-55
2022/01/21 13:28:58;;;;;;;;;;;;;;;;;;4222998;28;1244;-55
2022/01/21 13:31:18;;;;;;;;;;;;;;;;;;4222347;28;1053;-54
2022/01/21 13:33:38;;;;;;;;;;;;;;;;;;4221572;28;1918;-55
2022/01/21 13:35:59;;;;;;;;;;;;;;;;;;4221948;28;1573;-54
2022/01/21 13:38:20;;;;;;;;;;;;;;;;;;4221614;28;1838;-55
2022/01/21 13:40:41;;;;;;;;;;;;;;;;;;4221692;28;1792;-55
2022/01/21 13:43:02;;;;;;;;;;;;;;;;;;4221655;28;1739;-55
2022/01/21 13:45:22;;;;;;;;;;;;;;;;;;4219964;28;2130;-55
2022/01/21 13:47:44;;;;;;;;;;;;;;;;;;4207160;28;1763;-55
2022/01/21 13:50:05;;;;;;;;;;;;;;;;;;4220302;28;1978;-55
2022/01/21 13:52:25;;;;;;;;;;;;;;;;;;4222495;28;1162;-55
2022/01/21 13:54:45;;;;;;;;;;;;;;;;;;4222946;28;945;-54
2022/01/21 13:57:06;;;;;;;;;;;;;;;;;;4222667;28;950;-55
2022/01/21 13:59:26;;;;;;;;;;;;;;;;;;4220551;28;1882;-55
2022/01/21 14:01:47;;;;;;;;;;;;;;;;;;4205353;28;1831;-55
2022/01/21 14:04:07;;;;;;;;;;;;;;;;;;4221807;28;2009;-55
2022/01/21 14:06:28;;;;;;;;;;;;;;;;;;4217637;28;1476;-55
2022/01/21 14:08:48;;;;;;;;;;;;;;;;;;4222189;28;1293;-55
2022/01/21 14:11:08;;;;;;;;;;;;;;;;;;4222645;28;1906;-55
2022/01/21 14:13:29;;;;;;;;;;;;;;;;;;4222608;28;863;-55
2022/01/21 14:15:49;;;;;;;;;;;;;;;;;;4203775;28;2426;-55
2022/01/21 14:18:09;;;;;;;;;;;;;;;;;;4208448;28;1920;-55
2022/01/21 14:20:38;;;;;;;;;;;;;;;;;;4233287;27;2543;-56
2022/01/21 14:22:58;;;;;;;;;;;;;;;;;;4221093;28;2467;-55
2022/01/21 14:25:19;;;;;;;;;;;;;;;;;;4224260;27;3220;-56
2022/01/21 14:27:39;;;;;;;;;;;;;;;;;;4225087;27;2577;-57
2022/01/21 14:30:00;;;;;;;;;;;;;;;;;;4225058;27;2205;-56
2022/01/21 14:32:21;;;;;;;;;;;;;;;;;;4231686;28;2101;-56
2022/01/21 14:34:41;;;;;;;;;;;;;;;;;;4221502;27;1642;-56
2022/01/21 14:37:02;;;;;;;;;;;;;;;;;;4234162;28;1234;-56
2022/01/21 14:39:22;;;;;;;;;;;;;;;;;;4235264;27;2038;-56
2022/01/21 14:41:42;;;;;;;;;;;;;;;;;;4234648;27;2510;-56
2022/01/21 14:44:02;;;;;;;;;;;;;;;;;;4221145;28;1052;-56
2022/01/21 14:46:23;;;;;;;;;;;;;;;;;;4234350;27;1934;-55
2022/01/21 14:48:43;;;;;;;;;;;;;;;;;;4227703;27;1164;-56
2022/01/21 14:51:05;;;;;;;;;;;;;;;;;;4218817;28;1032;-56
2022/01/21 14:53:25;;;;;;;;;;;;;;;;;;4224496;28;2002;-55
2022/01/21 14:55:45;;;;;;;;;;;;;;;;;;4232333;28;1077;-56
2022/01/21 14:58:06;;;;;;;;;;;;;;;;;;4235471;27;983;-56
2022/01/21 15:00:26;;;;;;;;;;;;;;;;;;4234121;28;1981;-56
2022/01/21 15:02:46;;;;;;;;;;;;;;;;;;4225591;27;3947;-55
2022/01/21 15:05:11;;;;;;;;;;;;;;;;;;4234769;27;2409;-55
2022/01/21 15:07:31;;;;;;;;;;;;;;;;;;4234288;27;1939;-55
2022/01/21 15:09:53;;;;;;;;;;;;;;;;;;4226856;27;2371;-55
2022/01/21 15:14:24;;;;;;;;;;;;;;;;;;4238972;27;1817;-55
2022/01/21 15:14:55;;;;;;;;;;;;;;;;;;4239871;27;1992;-56
2022/01/21 15:17:15;;;;;;;;;;;;;;;;;;4220290;28;1871;-55
2022/01/21 15:19:35;;;;;;;;;;;;;;;;;;4217776;28;1913;-55
2022/01/21 15:21:57;;;;;;;;;;;;;;;;;;4218899;28;1110;-55
2022/01/21 15:24:17;;;;;;;;;;;;;;;;;;4233928;27;1788;-55
2022/01/21 15:26:37;;;;;;;;;;;;;;;;;;4233559;27;2059;-55
2022/01/21 15:28:57;;;;;;;;;;;;;;;;;;4230577;27;1542;-55
2022/01/21 15:31:18;;;;;;;;;;;;;;;;;;4225652;27;2023;-55
2022/01/21 15:33:38;;;;;;;;;;;;;;;;;;4217503;28;1906;-55
2022/01/21 15:35:58;;;;;;;;;;;;;;;;;;4210422;28;4045;-55
2022/01/21 15:38:18;;;;;;;;;;;;;;;;;;4221802;28;1737;-55
2022/01/21 15:40:39;;;;;;;;;;;;;;;;;;4221928;28;1923;-55
2022/01/21 15:42:59;;;;;;;;;;;;;;;;;;4221756;28;1648;-55
2022/01/21 15:45:20;;;;;;;;;;;;;;;;;;4220439;28;3235;-55
2022/01/21 15:47:40;;;;;;;;;;;;;;;;;;4218077;28;2120;-55
2022/01/21 15:50:00;;;;;;;;;;;;;;;;;;4217049;28;1739;-55
2022/01/21 15:52:21;;;;;;;;;;;;;;;;;;4219791;28;2023;-55
2022/01/21 15:54:41;;;;;;;;;;;;;;;;;;4220615;28;1906;-55
2022/01/21 15:57:01;;;;;;;;;;;;;;;;;;4220291;28;1742;-55
2022/01/21 15:59:22;;;;;;;;;;;;;;;;;;4219952;28;1910;-56
2022/01/21 16:01:42;;;;;;;;;;;;;;;;;;4220494;28;1499;-55
2022/01/21 16:04:02;;;;;;;;;;;;;;;;;;4222501;28;1124;-55
2022/01/21 16:06:23;;;;;;;;;;;;;;;;;;4223159;28;1105;-55
2022/01/21 16:08:45;;;;;;;;;;;;;;;;;;4222174;28;1479;-55
2022/01/21 16:11:05;;;;;;;;;;;;;;;;;;4222494;28;1378;-55
2022/01/21 16:13:26;;;;;;;;;;;;;;;;;;4222604;28;1269;-55
2022/01/21 16:15:47;;;;;;;;;;;;;;;;;;4222616;28;1572;-55
2022/01/21 16:18:07;;;;;;;;;;;;;;;;;;4222542;28;996;-55
2022/01/21 16:20:28;;;;;;;;;;;;;;;;;;4222372;28;1909;-56
2022/01/21 16:22:48;;;;;;;;;;;;;;;;;;4222146;28;1570;-55
2022/01/21 16:25:08;;;;;;;;;;;;;;;;;;4220795;28;1698;-55
2022/01/21 16:27:29;;;;;;;;;;;;;;;;;;4222034;28;1517;-55
2022/01/21 16:29:49;;;;;;;;;;;;;;;;;;4220682;28;1719;-55
2022/01/21 16:32:09;;;;;;;;;;;;;;;;;;4220883;28;1718;-55
2022/01/21 16:34:31;;;;;;;;;;;;;;;;;;4221088;28;1597;-55
2022/01/21 16:36:51;;;;;;;;;;;;;;;;;;4222003;28;1993;-56
2022/01/21 16:39:12;;;;;;;;;;;;;;;;;;4222259;28;1108;-55
2022/01/21 16:41:33;;;;;;;;;;;;;;;;;;4219355;28;1920;-55
2022/01/21 16:43:54;;;;;;;;;;;;;;;;;;4208608;28;2613;-56
2022/01/21 16:46:14;;;;;;;;;;;;;;;;;;4220499;28;989;-55
2022/01/21 16:48:35;;;;;;;;;;;;;;;;;;4218556;28;1755;-54
2022/01/21 16:50:55;;;;;;;;;;;;;;;;;;4210381;28;1773;-56
2022/01/21 16:53:16;;;;;;;;;;;;;;;;;;4212225;28;2437;-55
2022/01/21 16:55:37;;;;;;;;;;;;;;;;;;4212842;28;2020;-55
2022/01/21 16:57:57;;;;;;;;;;;;;;;;;;4211938;28;1788;-56
2022/01/21 17:00:18;;;;;;;;;;;;;;;;;;4209500;28;1905;-55
2022/01/21 17:02:38;;;;;;;;;;;;;;;;;;4240903;27;2548;-55
2022/01/21 17:04:59;;;;;;;;;;;;;;;;;;4204568;28;2613;-55
2022/01/21 17:07:19;;;;;;;;;;;;;;;;;;4209435;28;2622;-55
2022/01/21 17:09:40;;;;;;;;;;;;;;;;;;4201358;28;2625;-55
2022/01/21 17:12:00;;;;;;;;;;;;;;;;;;4205233;28;2731;-55